createdAt,value
2022-12-08T00:01:23.632Z,-0.62
2022-12-08T00:03:52.300Z,-0.60
2022-12-08T00:06:45.631Z,-0.67
2022-12-08T00:09:23.269Z,-0.38
2022-12-08T00:11:55.802Z,-0.48
2022-12-08T00:14:34.659Z,-0.49
2022-12-08T00:17:03.553Z,-0.61
2022-12-08T00:19:31.484Z,-0.50
2022-12-08T00:21:59.085Z,-0.40
2022-12-08T00:24:32.419Z,-0.44
2022-12-08T00:26:59.758Z,-0.45
2022-12-08T00:29:27.658Z,-0.70
2022-12-08T00:31:55.106Z,-0.59
2022-12-08T00:34:22.917Z,-0.67
2022-12-08T00:36:50.233Z,-0.95
2022-12-08T00:39:18.440Z,-0.87
2022-12-08T00:42:04.408Z,-0.78
2022-12-08T00:44:31.975Z,-0.93
2022-12-08T00:46:59.184Z,-0.89
2022-12-08T00:49:26.871Z,-0.91
2022-12-08T00:51:54.136Z,-0.82
2022-12-08T00:54:23.147Z,-0.96
2022-12-08T00:56:50.818Z,-0.98
2022-12-08T00:59:19.391Z,-0.85
2022-12-08T01:01:47.858Z,-0.89
2022-12-08T01:04:17.672Z,-1.23
2022-12-08T01:06:45.650Z,-1.36
2022-12-08T01:09:14.461Z,-1.41
2022-12-08T01:11:42.410Z,-1.16
2022-12-08T01:14:10.068Z,-1.45
2022-12-08T01:16:38.310Z,-1.04
2022-12-08T01:19:05.840Z,-0.98
2022-12-08T01:21:33.251Z,-1.01
2022-12-08T01:24:01.433Z,-1.13
2022-12-08T01:26:28.808Z,-1.17
2022-12-08T01:28:56.420Z,-1.05
2022-12-08T01:31:24.374Z,-1.13
2022-12-08T01:33:52.075Z,-1.12
2022-12-08T01:36:25.105Z,-0.99
2022-12-08T01:38:54.209Z,-0.95
2022-12-08T01:41:24.441Z,-1.12
2022-12-08T01:44:04.725Z,-0.98
2022-12-08T01:46:33.626Z,-1.37
2022-12-08T01:49:04.300Z,-1.16
2022-12-08T01:51:35.816Z,-1.22
2022-12-08T01:54:05.782Z,-1.43
2022-12-08T01:56:41.174Z,-1.13
2022-12-08T01:59:11.817Z,-0.81
2022-12-08T02:01:39.368Z,-0.86
2022-12-08T02:04:07.150Z,-0.93
2022-12-08T02:06:39.814Z,-0.99
2022-12-08T02:09:08.385Z,-1.05
2022-12-08T02:11:35.746Z,-1.05
2022-12-08T02:14:08.393Z,-0.87
2022-12-08T02:16:49.337Z,-1.02
2022-12-08T02:19:53.844Z,-0.98
2022-12-08T02:22:40.556Z,-0.81
2022-12-08T02:25:20.650Z,-1.00
2022-12-08T02:28:05.903Z,-1.01
2022-12-08T02:30:45.506Z,-0.91
2022-12-08T02:33:22.029Z,-0.92
2022-12-08T02:35:54.228Z,-0.62
2022-12-08T02:38:30.408Z,-0.63
2022-12-08T02:41:17.058Z,-0.47
2022-12-08T02:43:48.779Z,-0.49
2022-12-08T02:46:21.831Z,-0.57
2022-12-08T02:48:52.044Z,-0.43
2022-12-08T02:51:20.021Z,-0.38
2022-12-08T02:53:48.696Z,-0.47
2022-12-08T02:56:25.295Z,-0.23
2022-12-08T02:59:01.535Z,-0.24
2022-12-08T03:02:06.933Z,-0.32
2022-12-08T03:05:11.643Z,-0.50
2022-12-08T03:07:44.922Z,-0.57
2022-12-08T03:10:30.293Z,-0.60
2022-12-08T03:13:13.667Z,-0.45
2022-12-08T03:15:43.121Z,-0.38
2022-12-08T03:18:15.031Z,-0.47
2022-12-08T03:20:43.819Z,-0.48
2022-12-08T03:23:14.639Z,-0.53
2022-12-08T03:26:02.025Z,-0.62
2022-12-08T03:28:29.712Z,-0.76
2022-12-08T03:31:02.807Z,-0.59
2022-12-08T03:33:40.492Z,-0.50
2022-12-08T03:36:09.647Z,-0.59
2022-12-08T03:38:43.320Z,-0.74
2022-12-08T03:41:20.719Z,-0.62
2022-12-08T03:43:58.430Z,-0.65
2022-12-08T03:48:55.122Z,-0.48
2022-12-08T03:51:22.793Z,-0.59
2022-12-08T03:53:50.988Z,-0.65
2022-12-08T03:56:28.135Z,-0.81
2022-12-08T03:58:56.072Z,-0.51
2022-12-08T04:01:23.673Z,-0.53
2022-12-08T04:03:51.621Z,-0.77
2022-12-08T04:06:19.412Z,-0.88
2022-12-08T04:08:47.057Z,-0.92
2022-12-08T04:11:14.803Z,-0.84
2022-12-08T04:13:43.993Z,-0.78
2022-12-08T04:16:22.716Z,-1.05
2022-12-08T04:18:50.834Z,-0.80
2022-12-08T04:21:18.390Z,-0.93
2022-12-08T04:23:46.864Z,-0.77
2022-12-08T04:26:15.009Z,-0.88
2022-12-08T04:28:42.851Z,-0.98
2022-12-08T04:31:10.794Z,-0.79
2022-12-08T04:33:38.417Z,-0.91
2022-12-08T04:36:06.561Z,-1.00
2022-12-08T04:38:34.805Z,-0.80
2022-12-08T04:41:02.221Z,-0.83
2022-12-08T04:43:30.219Z,-1.06
2022-12-08T04:45:57.435Z,-1.32
2022-12-08T04:48:26.049Z,-1.04
2022-12-08T04:50:53.336Z,-1.04
2022-12-08T04:53:21.388Z,-1.10
2022-12-08T04:55:49.739Z,-1.11
2022-12-08T04:58:19.173Z,-1.02
2022-12-08T05:00:47.466Z,-1.07
2022-12-08T05:03:15.677Z,-0.81
2022-12-08T05:05:43.923Z,-0.57
2022-12-08T05:08:11.704Z,-0.52
2022-12-08T05:10:39.534Z,-0.42
2022-12-08T05:13:07.144Z,-0.44
2022-12-08T05:15:34.435Z,-0.64
2022-12-08T05:18:02.014Z,-0.60
2022-12-08T05:20:29.237Z,-0.54
2022-12-08T05:22:56.932Z,-0.52
2022-12-08T05:25:24.354Z,-0.34
2022-12-08T05:27:55.270Z,-0.54
2022-12-08T05:30:29.669Z,-0.46
2022-12-08T05:32:57.335Z,-0.29
2022-12-08T05:35:24.602Z,-0.44
2022-12-08T05:37:54.022Z,-0.36
2022-12-08T05:40:21.368Z,-0.38
2022-12-08T05:42:48.841Z,-0.36
2022-12-08T05:45:16.126Z,-0.39
2022-12-08T05:47:43.685Z,-0.36
2022-12-08T05:50:11.201Z,-0.52
2022-12-08T05:52:38.794Z,-0.55
2022-12-08T05:55:06.797Z,-0.77
2022-12-08T05:57:34.301Z,-1.00
2022-12-08T06:00:01.947Z,-0.72
2022-12-08T06:02:39.820Z,-0.83
2022-12-08T06:05:07.563Z,-0.50
2022-12-08T06:07:35.044Z,-0.49
2022-12-08T06:10:03.049Z,-0.37
2022-12-08T06:12:30.968Z,-0.46
2022-12-08T06:14:58.212Z,-0.65
2022-12-08T06:17:25.770Z,-0.64
2022-12-08T06:19:53.187Z,-0.54
2022-12-08T06:22:20.856Z,-0.60
2022-12-08T06:24:48.058Z,-0.66
2022-12-08T06:27:15.792Z,-0.62
2022-12-08T06:29:43.066Z,-0.65
2022-12-08T06:32:11.840Z,-0.94
2022-12-08T06:34:39.050Z,-1.03
2022-12-08T06:37:06.657Z,-0.94
2022-12-08T06:39:33.839Z,-0.80
2022-12-08T06:42:19.909Z,-0.65
2022-12-08T06:44:47.847Z,-0.57
2022-12-08T06:47:15.306Z,-0.63
2022-12-08T06:49:42.600Z,-0.45
2022-12-08T06:52:10.196Z,-0.40
2022-12-08T06:54:37.728Z,-0.20
2022-12-08T06:57:05.197Z,-0.33
2022-12-08T06:59:32.706Z,-0.27
2022-12-08T07:02:00.289Z,-0.16
2022-12-08T07:04:27.542Z,-0.30
2022-12-08T07:06:55.055Z,-0.22
2022-12-08T07:09:22.422Z,-0.35
2022-12-08T07:11:50.152Z,-0.31
2022-12-08T07:14:17.577Z,-0.31
2022-12-08T07:16:45.140Z,-0.16
2022-12-08T07:19:12.620Z,-0.16
2022-12-08T07:21:40.774Z,-0.09
2022-12-08T07:24:08.166Z,-0.13
2022-12-08T07:26:36.079Z,0.03
2022-12-08T07:29:03.936Z,0.08
2022-12-08T07:31:31.592Z,0.09
2022-12-08T07:33:58.849Z,0.18
2022-12-08T07:36:26.776Z,0.03
2022-12-08T07:38:54.334Z,-0.05
2022-12-08T07:41:24.834Z,-0.23
2022-12-08T07:43:53.842Z,-0.24
2022-12-08T07:46:23.750Z,-0.25
2022-12-08T07:48:52.616Z,-0.20
2022-12-08T07:51:20.501Z,-0.22
2022-12-08T07:53:53.814Z,-0.17
2022-12-08T07:56:22.587Z,-0.13
2022-12-08T07:58:49.974Z,-0.11
2022-12-08T08:01:30.397Z,-0.24
2022-12-08T08:04:01.850Z,-0.28
2022-12-08T08:06:29.330Z,-0.12
2022-12-08T08:08:57.357Z,0.04
2022-12-08T08:11:25.092Z,-0.11
2022-12-08T08:13:52.840Z,-0.28
2022-12-08T08:16:21.257Z,0.16
2022-12-08T08:18:52.223Z,0.51
2022-12-08T08:24:08.523Z,0.82
2022-12-08T08:26:37.154Z,0.64
2022-12-08T08:29:04.361Z,0.49
2022-12-08T08:31:31.957Z,0.43
2022-12-08T08:34:05.097Z,0.34
2022-12-08T08:36:34.462Z,0.04
2022-12-08T08:39:02.131Z,0.14
2022-12-08T08:41:29.733Z,0.02
2022-12-08T08:43:57.019Z,0.05
2022-12-08T08:46:24.651Z,0.07
2022-12-08T08:48:52.075Z,0.02
2022-12-08T08:51:19.752Z,-0.09
2022-12-08T08:53:47.410Z,0.08
2022-12-08T08:56:19.345Z,0.16
2022-12-08T08:58:48.806Z,0.13
2022-12-08T09:01:19.979Z,0.13
2022-12-08T09:03:49.074Z,0.15
2022-12-08T09:06:17.606Z,0.28
2022-12-08T09:08:45.836Z,0.26
2022-12-08T09:11:13.910Z,0.31
2022-12-08T09:13:41.732Z,0.17
2022-12-08T09:16:11.549Z,0.15
2022-12-08T09:18:38.936Z,0.18
2022-12-08T09:21:08.730Z,0.18
2022-12-08T09:23:39.472Z,0.26
2022-12-08T09:26:07.892Z,0.30
2022-12-08T09:28:35.521Z,0.41
2022-12-08T09:31:03.840Z,0.34
2022-12-08T09:33:31.799Z,0.40
2022-12-08T09:36:03.949Z,0.51
2022-12-08T09:38:31.121Z,0.64
2022-12-08T09:41:00.249Z,0.47
2022-12-08T09:43:51.701Z,0.82
2022-12-08T09:46:20.426Z,0.95
2022-12-08T09:48:56.129Z,1.01
2022-12-08T09:51:32.032Z,0.70
2022-12-08T09:54:12.718Z,0.18
2022-12-08T09:56:40.634Z,0.53
2022-12-08T09:59:29.331Z,0.23
2022-12-08T10:01:57.094Z,0.28
2022-12-08T10:04:31.626Z,0.36
2022-12-08T10:07:20.998Z,0.26
2022-12-08T10:10:39.451Z,0.11
2022-12-08T10:13:21.941Z,0.35
2022-12-08T10:16:26.548Z,0.69
2022-12-08T10:19:20.603Z,0.85
2022-12-08T10:21:48.718Z,1.00
2022-12-08T10:24:26.104Z,1.26
2022-12-08T10:26:55.439Z,1.33
2022-12-08T10:29:22.997Z,1.39
2022-12-08T10:31:50.232Z,1.32
2022-12-08T10:34:23.161Z,1.14
2022-12-08T10:36:53.832Z,0.97
2022-12-08T10:39:39.811Z,0.12
2022-12-08T10:42:16.001Z,0.31
2022-12-08T10:44:54.416Z,0.47
2022-12-08T10:47:24.611Z,0.34
2022-12-08T10:50:23.057Z,0.58
2022-12-08T10:53:10.839Z,-0.03
2022-12-08T10:56:06.383Z,-0.03
2022-12-08T10:58:36.302Z,-0.12
2022-12-08T11:01:14.927Z,0.34
2022-12-08T11:03:49.995Z,0.26
2022-12-08T11:06:29.492Z,0.44
2022-12-08T11:08:59.906Z,0.23
2022-12-08T11:11:57.863Z,0.31
2022-12-08T11:14:33.149Z,0.75
2022-12-08T11:17:12.299Z,0.89
2022-12-08T11:24:42.716Z,0.08
2022-12-08T11:27:10.392Z,-0.03
2022-12-08T11:29:37.606Z,-0.07
2022-12-08T11:32:14.840Z,0.10
2022-12-08T11:34:57.499Z,-0.42
2022-12-08T11:37:41.445Z,0.02
2022-12-08T11:40:22.150Z,-0.11
2022-12-08T11:43:12.870Z,0.04
2022-12-08T11:45:41.890Z,0.15
2022-12-08T11:48:25.657Z,0.02
2022-12-08T11:51:02.642Z,-0.08
2022-12-08T11:53:41.937Z,-0.11
2022-12-08T11:56:43.906Z,-0.51
2022-12-08T11:59:20.465Z,-0.48
2022-12-08T12:01:48.628Z,-0.66
2022-12-08T12:04:28.792Z,-0.67
2022-12-08T12:07:10.789Z,-0.25
2022-12-08T12:10:07.374Z,-0.05
2022-12-08T12:12:39.851Z,-0.41
2022-12-08T12:15:26.202Z,-0.69
2022-12-08T12:18:16.494Z,-1.01
2022-12-08T12:20:59.238Z,-1.12
2022-12-08T12:23:40.787Z,-1.12
2022-12-08T12:26:18.326Z,-0.96
2022-12-08T12:29:00.808Z,-0.88
2022-12-08T12:31:30.500Z,-0.87
2022-12-08T12:34:11.717Z,-1.21
2022-12-08T12:36:49.668Z,-1.38
2022-12-08T12:39:20.138Z,-1.19
2022-12-08T12:41:52.899Z,-1.26
2022-12-08T12:44:29.239Z,-1.16
2022-12-08T12:46:59.800Z,-0.90
2022-12-08T12:49:39.735Z,-0.72
2022-12-08T12:52:10.295Z,-1.16
2022-12-08T12:55:05.261Z,-1.38
2022-12-08T12:57:40.665Z,-1.06
2022-12-08T13:00:18.028Z,-1.33
2022-12-08T13:02:49.300Z,-1.18
2022-12-08T13:05:19.531Z,-0.99
2022-12-08T13:08:02.627Z,-0.79
2022-12-08T13:10:33.354Z,-1.05
2022-12-08T13:13:07.090Z,-0.83
2022-12-08T13:15:37.904Z,-1.24
2022-12-08T13:18:07.781Z,-1.27
2022-12-08T13:20:46.160Z,-1.13
2022-12-08T13:23:28.519Z,-1.00
2022-12-08T13:26:20.765Z,-1.05
2022-12-08T13:29:03.958Z,-1.09
2022-12-08T13:31:41.665Z,-1.14
2022-12-08T13:34:29.096Z,-1.23
2022-12-08T13:37:11.544Z,-1.17
2022-12-08T13:39:39.178Z,-1.14
2022-12-08T13:42:12.520Z,-1.38
2022-12-08T13:49:52.738Z,-1.54
2022-12-08T13:57:32.851Z,-1.43
2022-12-08T14:00:03.757Z,-1.58
2022-12-08T14:02:47.674Z,-1.63
2022-12-08T14:05:20.621Z,-1.49
2022-12-08T14:08:02.720Z,-1.75
2022-12-08T14:10:32.235Z,-1.55
2022-12-08T14:13:03.434Z,-1.65
2022-12-08T14:15:38.268Z,-1.41
2022-12-08T14:18:21.521Z,-1.71
2022-12-08T14:21:20.423Z,-1.88
2022-12-08T14:23:48.218Z,-1.57
2022-12-08T14:26:15.604Z,-1.78
2022-12-08T14:28:45.144Z,-1.66
2022-12-08T14:31:14.732Z,-1.70
2022-12-08T14:33:43.198Z,-1.59
2022-12-08T14:36:12.675Z,-1.85
2022-12-08T14:38:40.319Z,-1.77
2022-12-08T14:41:11.756Z,-1.51
2022-12-08T14:43:41.088Z,-1.52
2022-12-08T14:46:23.058Z,-1.75
2022-12-08T14:48:50.856Z,-1.84
2022-12-08T14:51:23.953Z,-1.67
2022-12-08T14:54:08.821Z,-1.80
2022-12-08T14:56:52.378Z,-1.89
2022-12-08T14:59:32.246Z,-1.89
2022-12-08T15:02:24.527Z,-1.82
2022-12-08T15:04:58.082Z,-1.86
2022-12-08T15:07:30.008Z,-1.81
2022-12-08T15:10:15.861Z,-1.85
2022-12-08T15:13:02.457Z,-1.94
2022-12-08T15:15:31.518Z,-1.87
2022-12-08T15:18:12.748Z,-1.90
2022-12-08T15:20:48.404Z,-1.87
2022-12-08T15:23:26.760Z,-1.97
2022-12-08T15:25:55.682Z,-1.95
2022-12-08T15:28:29.725Z,-2.05
2022-12-08T15:30:58.991Z,-2.00
2022-12-08T15:33:27.107Z,-1.96
2022-12-08T15:35:54.772Z,-1.97
2022-12-08T15:38:26.242Z,-1.73
2022-12-08T15:40:54.610Z,-1.80
2022-12-08T15:43:23.077Z,-1.78
2022-12-08T15:45:59.019Z,-1.76
2022-12-08T15:48:29.332Z,-1.54
2022-12-08T15:50:57.388Z,-1.80
2022-12-08T15:53:24.609Z,-1.82
2022-12-08T15:58:56.614Z,-1.80
2022-12-08T16:01:25.966Z,-1.75
2022-12-08T16:09:38.835Z,-1.60
2022-12-08T16:13:13.446Z,-1.56
2022-12-08T16:15:49.942Z,-1.64
2022-12-08T16:18:15.851Z,-1.67
2022-12-08T16:21:08.045Z,-1.63
2022-12-08T16:23:42.948Z,-1.65
2022-12-08T16:26:44.288Z,-1.62
2022-12-08T16:29:05.537Z,-1.44
2022-12-08T16:31:33.504Z,-1.48
2022-12-08T16:34:01.255Z,-1.52
2022-12-08T16:36:28.600Z,-1.51
2022-12-08T16:38:56.131Z,-1.30
2022-12-08T16:41:41.860Z,-1.27
2022-12-08T16:44:09.461Z,-1.46
2022-12-08T16:46:37.223Z,-1.37
2022-12-08T16:49:07.976Z,-1.22
2022-12-08T16:51:35.442Z,-1.26
2022-12-08T16:54:02.980Z,-1.12
2022-12-08T16:56:32.972Z,-1.19
2022-12-08T16:59:02.376Z,-0.90
2022-12-08T17:01:30.275Z,-1.32
2022-12-08T17:06:45.440Z,-1.22
2022-12-08T17:09:13.108Z,-0.92
2022-12-08T17:11:43.336Z,-1.00
2022-12-08T17:14:14.930Z,-1.14
2022-12-08T17:16:43.014Z,-1.11
2022-12-08T17:19:13.343Z,-0.94
2022-12-08T17:21:40.569Z,-0.82
2022-12-08T17:24:08.193Z,-0.81
2022-12-08T17:26:35.652Z,-0.78
2022-12-08T17:29:04.361Z,-0.99
2022-12-08T17:31:32.689Z,-1.00
2022-12-08T17:34:05.855Z,-0.93
2022-12-08T17:36:33.154Z,-0.92
2022-12-08T17:39:01.266Z,-0.97
2022-12-08T17:41:29.413Z,-0.92
2022-12-08T17:43:57.296Z,-0.90
2022-12-08T17:46:24.934Z,-0.81
2022-12-08T17:48:52.838Z,-0.75
2022-12-08T17:51:20.235Z,-0.69
2022-12-08T17:53:47.882Z,-0.76
2022-12-08T17:56:21.713Z,-0.70
2022-12-08T17:58:54.190Z,-0.55
2022-12-08T18:01:23.186Z,-0.62
2022-12-08T18:03:51.131Z,-0.69
2022-12-08T18:06:18.704Z,-0.71
2022-12-08T18:08:46.860Z,-0.60
2022-12-08T18:11:18.016Z,-0.55
2022-12-08T18:13:47.185Z,-0.53
2022-12-08T18:16:15.611Z,-0.59
2022-12-08T18:18:43.335Z,-0.65
2022-12-08T18:21:12.520Z,-0.68
2022-12-08T18:23:42.434Z,-0.61
2022-12-08T18:26:13.012Z,-0.65
2022-12-08T18:28:41.085Z,-0.58
2022-12-08T18:31:13.858Z,-0.59
2022-12-08T18:33:43.633Z,-0.62
2022-12-08T18:36:15.011Z,-0.64
2022-12-08T18:38:42.852Z,-0.70
2022-12-08T18:41:13.147Z,-0.83
2022-12-08T18:43:40.895Z,-0.81
2022-12-08T18:46:10.698Z,-0.58
2022-12-08T18:48:41.994Z,-0.61
2022-12-08T18:51:14.683Z,-0.61
2022-12-08T18:53:42.717Z,-0.53
2022-12-08T18:56:21.337Z,-0.49
2022-12-08T18:58:48.915Z,-0.56
2022-12-08T19:01:16.536Z,-0.69
2022-12-08T19:03:58.503Z,-0.55
2022-12-08T19:06:31.884Z,-0.65
2022-12-08T19:08:59.496Z,-0.64
2022-12-08T19:11:28.793Z,-0.67
2022-12-08T19:13:57.134Z,-0.70
2022-12-08T19:16:24.499Z,-0.70
2022-12-08T19:18:52.113Z,-0.73
2022-12-08T19:21:20.496Z,-0.74
2022-12-08T19:23:48.057Z,-0.65
2022-12-08T19:26:15.266Z,-0.67
2022-12-08T19:28:43.074Z,-0.69
2022-12-08T19:31:11.211Z,-0.74
2022-12-08T19:33:39.474Z,-0.78
2022-12-08T19:36:08.981Z,-0.82
2022-12-08T19:38:56.549Z,-0.72
2022-12-08T19:41:42.491Z,-0.81
2022-12-08T19:44:38.586Z,-0.88
2022-12-08T19:47:06.354Z,-0.93
2022-12-08T19:49:34.020Z,-0.92
2022-12-08T19:52:01.929Z,-0.80
2022-12-08T19:54:29.614Z,-0.72
2022-12-08T19:56:56.948Z,-0.81
2022-12-08T19:59:27.846Z,-0.88
2022-12-08T20:01:55.907Z,-0.88
2022-12-08T20:04:25.241Z,-0.98
2022-12-08T20:06:53.844Z,-0.96
2022-12-08T20:09:22.226Z,-1.01
2022-12-08T20:11:50.871Z,-1.03
2022-12-08T20:14:18.565Z,-0.90
2022-12-08T20:16:45.835Z,-0.99
2022-12-08T20:19:13.348Z,-1.06
2022-12-08T20:21:40.840Z,-1.20
2022-12-08T20:24:08.590Z,-1.33
2022-12-08T20:26:35.900Z,-1.42
2022-12-08T20:29:03.710Z,-1.56
2022-12-08T20:31:32.128Z,-1.67
2022-12-08T20:34:00.247Z,-1.62
2022-12-08T20:36:28.049Z,-1.65
2022-12-08T20:38:56.209Z,-1.66
2022-12-08T20:41:23.834Z,-1.56
2022-12-08T20:43:52.433Z,-1.40
2022-12-08T20:46:21.210Z,-1.46
2022-12-08T20:48:49.155Z,-1.50
2022-12-08T20:51:19.736Z,-1.47
2022-12-08T20:53:47.652Z,-1.58
2022-12-08T20:56:17.516Z,-1.67
2022-12-08T20:58:46.166Z,-1.77
2022-12-08T21:01:16.068Z,-1.79
2022-12-08T21:03:45.423Z,-1.78
2022-12-08T21:06:13.614Z,-1.76
2022-12-08T21:08:42.871Z,-1.70
2022-12-08T21:11:10.666Z,-1.75
2022-12-08T21:13:39.048Z,-1.72
2022-12-08T21:16:09.309Z,-1.68
2022-12-08T21:18:39.621Z,-1.57
2022-12-08T21:21:11.311Z,-1.59
2022-12-08T21:23:40.516Z,-1.62
2022-12-08T21:26:19.593Z,-1.58
2022-12-08T21:28:47.594Z,-1.64
2022-12-08T21:31:17.866Z,-1.55
2022-12-08T21:33:45.882Z,-1.32
2022-12-08T21:36:16.275Z,-1.10
2022-12-08T21:38:45.063Z,-1.19
2022-12-08T21:41:42.140Z,-1.27
2022-12-08T21:44:12.255Z,-1.29
2022-12-08T21:46:39.759Z,-1.30
2022-12-08T21:49:07.830Z,-1.39
2022-12-08T21:51:41.846Z,-1.58
2022-12-08T21:54:16.680Z,-1.76
2022-12-08T21:56:48.008Z,-1.89
2022-12-08T21:59:16.708Z,-1.93
2022-12-08T22:01:44.675Z,-1.95
2022-12-08T22:04:16.077Z,-2.18
2022-12-08T22:06:43.845Z,-2.31
2022-12-08T22:09:13.610Z,-2.40
2022-12-08T22:11:42.166Z,-2.36
2022-12-08T22:14:14.340Z,-2.43
2022-12-08T22:16:43.752Z,-2.44
2022-12-08T22:19:12.521Z,-2.46
2022-12-08T22:21:40.363Z,-2.44
2022-12-08T22:24:08.632Z,-2.54
2022-12-08T22:26:36.056Z,-2.41
2022-12-08T22:29:04.199Z,-2.44
2022-12-08T22:31:31.501Z,-2.42
2022-12-08T22:33:59.709Z,-2.73
2022-12-08T22:36:28.080Z,-2.92
2022-12-08T22:38:56.793Z,-3.04
2022-12-08T22:41:24.540Z,-2.87
2022-12-08T22:43:52.415Z,-2.93
2022-12-08T22:46:23.312Z,-3.08
2022-12-08T22:48:52.996Z,-3.18
2022-12-08T22:51:20.439Z,-3.21
2022-12-08T22:53:48.645Z,-3.33
2022-12-08T22:56:18.175Z,-3.38
2022-12-08T22:58:46.563Z,-3.40
2022-12-08T23:01:40.085Z,-3.30
2022-12-08T23:04:11.334Z,-3.32
2022-12-08T23:06:41.642Z,-3.40
2022-12-08T23:09:09.268Z,-3.75
2022-12-08T23:11:36.660Z,-3.70
2022-12-08T23:14:04.378Z,-3.51
2022-12-08T23:16:32.032Z,-3.68
2022-12-08T23:18:59.713Z,-3.72
2022-12-08T23:21:27.567Z,-3.91
2022-12-08T23:23:55.151Z,-4.04
2022-12-08T23:26:25.424Z,-4.14
2022-12-08T23:28:53.190Z,-4.18
2022-12-08T23:31:20.715Z,-4.00
2022-12-08T23:33:48.917Z,-4.01
2022-12-08T23:36:18.434Z,-4.07
2022-12-08T23:38:46.846Z,-4.17
2022-12-08T23:41:16.119Z,-4.20
2022-12-08T23:43:46.774Z,-4.07
2022-12-08T23:46:15.826Z,-4.33
2022-12-08T23:48:44.217Z,-4.37
2022-12-08T23:51:12.646Z,-4.47
2022-12-08T23:53:40.651Z,-4.47
2022-12-08T23:56:12.160Z,-4.63
2022-12-08T23:58:41.087Z,-4.54
